Terminal Aerodrome Forecast
Issued by NWS

Home | Current Version | Previous Version | Text Only | Print | Product List | Glossary On
Versions: 1 2 3 4 5 6 7 8 9 10 11 12 13 14 15 16 17 18 19 20 21 22 23
933
FTUS46 KLOX 012252 AAC
TAFOXR
TAF AMD
KOXR 012252Z 0123/0218 21010G16KT P6SM BKN012 BKN250
      TEMPO 0123/0124 SCT012 BKN250
     FM020100 26008KT P6SM BKN012 BKN250
     FM020300 27006KT P6SM BKN007 BKN250
     FM020900 VRB03KT P6SM OVC012
     FM021700 25006KT P6SM SCT015 BKN250=

USA.gov is the U.S. government's official web portal to all federal, state and local government web resources and services.